createdAt,value
2022-08-17T00:00:43.834Z,12.13
2022-08-17T00:03:14.097Z,11.68
2022-08-17T00:05:48.009Z,11.15
2022-08-17T00:08:17.390Z,11.43
2022-08-17T00:10:45.744Z,11.82
2022-08-17T00:13:29.705Z,12.73
2022-08-17T00:16:02.239Z,12.38
2022-08-17T00:18:53.823Z,11.95
2022-08-17T00:21:23.635Z,12.82
2022-08-17T00:23:53.081Z,12.32
2022-08-17T00:26:43.123Z,13.05
2022-08-17T00:29:10.037Z,13.05
2022-08-17T00:31:47.189Z,13.57
2022-08-17T00:34:14.423Z,13.57
2022-08-17T00:36:41.926Z,14.60
2022-08-17T00:39:09.225Z,12.50
2022-08-17T00:41:36.625Z,13.43
2022-08-17T00:44:09.869Z,14.68
2022-08-17T00:46:41.151Z,14.80
2022-08-17T00:49:10.064Z,14.00
2022-08-17T00:51:49.381Z,14.10
2022-08-17T00:54:41.026Z,13.30
2022-08-17T00:57:16.983Z,14.30
2022-08-17T01:00:33.888Z,13.70
2022-08-17T01:03:06.609Z,12.70
2022-08-17T01:05:38.429Z,14.25
2022-08-17T01:08:13.590Z,15.20
2022-08-17T01:10:59.865Z,14.02
2022-08-17T01:13:40.845Z,13.52
2022-08-17T01:16:26.132Z,14.32
2022-08-17T01:18:58.659Z,16.08
2022-08-17T01:21:51.480Z,15.68
2022-08-17T01:24:19.022Z,14.52
2022-08-17T01:26:46.559Z,14.00
2022-08-17T01:29:14.340Z,14.52
2022-08-17T01:31:55.850Z,14.55
2022-08-17T01:34:25.130Z,15.27
2022-08-17T01:37:07.451Z,15.00
2022-08-17T01:39:38.482Z,14.57
2022-08-17T01:42:13.649Z,15.40
2022-08-17T01:44:41.379Z,15.40
2022-08-17T01:47:08.720Z,14.80
2022-08-17T01:49:36.020Z,14.00
2022-08-17T01:52:09.948Z,16.02
2022-08-17T01:54:40.037Z,14.90
2022-08-17T01:57:07.862Z,15.77
2022-08-17T01:59:35.114Z,16.88
2022-08-17T02:02:03.681Z,15.23
2022-08-17T02:04:32.049Z,16.73
2022-08-17T02:06:59.413Z,15.43
2022-08-17T02:09:29.991Z,14.27
2022-08-17T02:12:00.171Z,15.18
2022-08-17T02:14:47.369Z,15.25
2022-08-17T02:17:14.823Z,14.68
2022-08-17T02:19:42.020Z,16.00
2022-08-17T02:22:10.279Z,15.73
2022-08-17T02:24:59.635Z,17.40
2022-08-17T02:27:26.578Z,16.25
2022-08-17T02:29:53.933Z,14.32
2022-08-17T02:32:27.996Z,17.45
2022-08-17T02:34:59.520Z,15.00
2022-08-17T02:37:28.648Z,16.13
2022-08-17T02:39:57.328Z,16.42
2022-08-17T02:42:31.599Z,17.35
2022-08-17T02:44:59.278Z,14.93
2022-08-17T02:47:27.248Z,17.25
2022-08-17T02:49:55.553Z,16.40
2022-08-17T02:53:01.655Z,16.20
2022-08-17T02:55:23.867Z,19.40
2022-08-17T02:57:51.352Z,18.10
2022-08-17T03:00:34.268Z,17.80
2022-08-17T03:03:04.515Z,18.08
2022-08-17T03:05:34.740Z,15.85
2022-08-17T03:08:02.971Z,18.30
2022-08-17T03:10:30.150Z,15.68
2022-08-17T03:12:57.880Z,16.02
2022-08-17T03:15:28.318Z,16.55
2022-08-17T03:17:56.859Z,15.38
2022-08-17T03:20:26.067Z,15.80
2022-08-17T03:23:00.052Z,16.73
2022-08-17T03:25:36.110Z,15.48
2022-08-17T03:28:05.757Z,16.75
2022-08-17T03:30:33.780Z,18.45
2022-08-17T03:33:05.418Z,20.60
2022-08-17T03:35:36.598Z,16.70
2022-08-17T03:38:05.041Z,17.10
2022-08-17T03:40:34.650Z,15.75
2022-08-17T03:43:22.210Z,16.48
2022-08-17T03:46:26.950Z,15.80
2022-08-17T03:49:14.880Z,18.27
2022-08-17T03:52:00.577Z,16.20
2022-08-17T03:54:46.289Z,19.00
2022-08-17T03:57:14.295Z,16.85
2022-08-17T03:59:41.581Z,19.25
2022-08-17T04:02:29.793Z,16.75
2022-08-17T04:04:58.147Z,16.48
2022-08-17T04:07:27.679Z,16.13
2022-08-17T04:09:54.948Z,16.17
2022-08-17T04:12:25.576Z,17.27
2022-08-17T04:14:55.050Z,18.20
2022-08-17T04:17:26.488Z,17.90
2022-08-17T04:19:55.087Z,17.33
2022-08-17T04:22:32.068Z,17.05
2022-08-17T04:25:13.933Z,16.95
2022-08-17T04:27:41.249Z,17.50
2022-08-17T04:30:09.579Z,16.35
2022-08-17T04:33:04.430Z,15.82
2022-08-17T04:35:52.049Z,16.20
2022-08-17T04:38:25.180Z,17.83
2022-08-17T04:41:11.870Z,16.55
2022-08-17T04:43:42.097Z,18.40
2022-08-17T04:46:13.698Z,16.92
2022-08-17T04:48:46.328Z,17.50
2022-08-17T04:51:25.195Z,17.35
2022-08-17T04:53:56.867Z,16.73
2022-08-17T04:56:26.292Z,18.08
2022-08-17T04:58:56.415Z,20.33
2022-08-17T05:01:25.182Z,19.80
2022-08-17T05:03:54.864Z,19.50
2022-08-17T05:06:23.345Z,18.25
2022-08-17T05:08:51.008Z,17.30
2022-08-17T05:11:18.227Z,17.60
2022-08-17T05:13:45.619Z,16.23
2022-08-17T05:16:13.006Z,18.40
2022-08-17T05:18:40.251Z,17.95
2022-08-17T05:21:08.244Z,20.13
2022-08-17T05:23:42.765Z,19.23
2022-08-17T05:26:23.151Z,18.80
2022-08-17T05:28:55.181Z,18.77
2022-08-17T05:31:24.910Z,18.98
2022-08-17T05:33:52.552Z,18.85
2022-08-17T05:36:42.154Z,20.67
2022-08-17T05:39:07.063Z,18.95
2022-08-17T05:41:34.388Z,19.15
2022-08-17T05:44:05.324Z,18.40
2022-08-17T05:46:40.039Z,19.08
2022-08-17T05:49:08.362Z,18.55
2022-08-17T05:52:01.818Z,17.35
2022-08-17T05:54:31.961Z,17.25
2022-08-17T05:57:02.212Z,17.65
2022-08-17T05:59:38.172Z,16.80
2022-08-17T06:02:29.279Z,18.30
2022-08-17T06:05:37.580Z,18.92
2022-08-17T06:08:10.389Z,18.52
2022-08-17T06:10:49.459Z,18.10
2022-08-17T06:13:47.234Z,18.45
2022-08-17T06:16:33.376Z,19.40
2022-08-17T06:19:13.747Z,18.20
2022-08-17T06:21:48.054Z,17.05
2022-08-17T06:24:24.358Z,18.33
2022-08-17T06:26:54.079Z,18.70
2022-08-17T06:29:48.591Z,18.92
2022-08-17T06:32:17.309Z,18.83
2022-08-17T06:34:46.129Z,19.42
2022-08-17T06:37:28.192Z,17.70
2022-08-17T06:40:15.628Z,19.48
2022-08-17T06:43:07.621Z,18.45
2022-08-17T06:45:39.407Z,17.23
2022-08-17T06:48:09.659Z,18.90
2022-08-17T06:50:48.082Z,18.70
2022-08-17T06:53:26.895Z,20.00
2022-08-17T06:56:12.229Z,16.95
2022-08-17T06:58:43.538Z,17.38
2022-08-17T07:01:15.046Z,18.13
2022-08-17T07:03:54.771Z,17.13
2022-08-17T07:06:34.043Z,16.25
2022-08-17T07:09:16.163Z,16.30
2022-08-17T07:12:11.829Z,15.77
2022-08-17T07:14:56.719Z,15.15
2022-08-17T07:17:46.542Z,16.23
2022-08-17T07:20:23.225Z,16.05
2022-08-17T07:23:00.174Z,16.13
2022-08-17T07:25:30.725Z,15.32
2022-08-17T07:28:00.904Z,14.60
2022-08-17T07:30:44.635Z,15.40
2022-08-17T07:33:35.164Z,14.40
2022-08-17T07:36:02.533Z,13.60
2022-08-17T07:38:32.289Z,12.43
2022-08-17T07:41:05.442Z,12.73
2022-08-17T07:43:41.464Z,12.93
2022-08-17T07:46:30.125Z,11.43
2022-08-17T07:49:03.681Z,12.25
2022-08-17T07:52:13.415Z,12.90
2022-08-17T07:54:47.075Z,11.40
2022-08-17T07:57:19.603Z,11.65
2022-08-17T08:00:02.165Z,11.73
2022-08-17T08:02:42.355Z,11.48
2022-08-17T08:05:30.668Z,10.93
2022-08-17T08:08:42.510Z,12.35
2022-08-17T08:11:15.596Z,11.98
2022-08-17T08:13:45.814Z,11.93
2022-08-17T08:16:41.131Z,11.10
2022-08-17T08:19:09.481Z,11.85
2022-08-17T08:21:46.470Z,11.65
2022-08-17T08:24:32.061Z,11.50
2022-08-17T08:27:30.513Z,11.70
2022-08-17T08:30:05.039Z,10.95
2022-08-17T08:32:50.171Z,10.15
2022-08-17T08:35:37.125Z,10.60
2022-08-17T08:38:39.384Z,10.27
2022-08-17T08:41:29.825Z,11.02
2022-08-17T08:44:15.030Z,10.18
2022-08-17T08:46:57.889Z,10.15
2022-08-17T08:50:09.495Z,10.32
2022-08-17T08:53:11.555Z,9.90
2022-08-17T08:55:57.486Z,8.90
2022-08-17T08:58:54.879Z,10.38
2022-08-17T09:01:39.573Z,9.88
2022-08-17T09:04:25.832Z,9.57
2022-08-17T09:07:08.360Z,10.25
2022-08-17T09:09:41.659Z,9.57
2022-08-17T09:12:19.892Z,10.48
2022-08-17T09:14:56.171Z,10.65
2022-08-17T09:19:00.370Z,10.18
2022-08-17T09:21:08.593Z,10.60
2022-08-17T09:24:05.099Z,10.68
2022-08-17T09:26:54.581Z,9.52
2022-08-17T09:29:25.761Z,9.65
2022-08-17T09:32:01.843Z,9.07
2022-08-17T09:34:54.881Z,9.95
2022-08-17T09:37:47.151Z,9.65
2022-08-17T09:40:37.567Z,9.30
2022-08-17T09:43:27.918Z,9.32
2022-08-17T09:46:19.649Z,8.50
2022-08-17T09:49:10.767Z,9.65
2022-08-17T09:51:55.459Z,9.48
2022-08-17T09:54:41.311Z,9.75
2022-08-17T09:57:34.518Z,9.70
2022-08-17T10:00:16.094Z,9.00
2022-08-17T10:02:43.839Z,9.18
2022-08-17T10:05:40.179Z,8.50
2022-08-17T10:08:21.788Z,8.55
2022-08-17T10:11:48.167Z,8.90
2022-08-17T10:15:10.866Z,9.05
2022-08-17T10:17:47.715Z,8.65
2022-08-17T10:20:25.912Z,8.65
2022-08-17T10:23:48.243Z,7.85
2022-08-17T10:26:23.223Z,8.27
2022-08-17T10:28:58.948Z,7.68
2022-08-17T10:31:48.195Z,7.65
2022-08-17T10:34:52.886Z,8.10
2022-08-17T10:37:20.106Z,7.72
2022-08-17T10:40:11.124Z,7.30
2022-08-17T10:42:59.258Z,7.47
2022-08-17T10:46:27.658Z,7.68
2022-08-17T10:48:43.602Z,7.75
2022-08-17T10:51:40.257Z,7.10
2022-08-17T10:54:28.222Z,6.65
2022-08-17T10:56:57.272Z,6.55
2022-08-17T10:59:36.780Z,6.60
2022-08-17T11:02:10.208Z,7.22
2022-08-17T11:04:44.881Z,6.90
2022-08-17T11:07:20.401Z,7.10
2022-08-17T11:10:09.999Z,6.50
2022-08-17T11:13:01.654Z,7.22
2022-08-17T11:15:43.943Z,7.03
2022-08-17T11:18:36.820Z,7.03
2022-08-17T11:21:22.181Z,6.80
2022-08-17T11:24:11.938Z,7.10
2022-08-17T11:26:47.822Z,7.47
2022-08-17T11:30:02.457Z,7.18
2022-08-17T11:32:47.367Z,6.72
2022-08-17T11:35:22.154Z,6.47
2022-08-17T11:38:14.021Z,7.50
2022-08-17T11:41:02.004Z,6.70
2022-08-17T11:43:29.507Z,6.97
2022-08-17T11:46:24.383Z,6.75
2022-08-17T11:49:27.465Z,6.18
2022-08-17T11:52:01.433Z,5.97
2022-08-17T11:54:34.915Z,5.97
2022-08-17T11:57:27.962Z,5.72
2022-08-17T11:59:59.076Z,6.35
2022-08-17T12:02:32.619Z,5.82
2022-08-17T12:05:14.816Z,6.10
2022-08-17T12:07:52.174Z,5.90
2022-08-17T12:10:22.913Z,6.10
2022-08-17T12:12:53.768Z,6.47
2022-08-17T12:15:34.687Z,6.22
2022-08-17T12:18:02.372Z,6.40
2022-08-17T12:20:42.525Z,6.13
2022-08-17T12:23:15.030Z,6.15
2022-08-17T12:25:59.787Z,5.90
2022-08-17T12:28:34.418Z,5.60
2022-08-17T12:31:08.116Z,6.20
2022-08-17T12:33:37.266Z,5.93
2022-08-17T12:36:08.648Z,5.88
2022-08-17T12:38:38.380Z,5.63
2022-08-17T12:41:28.785Z,6.05
2022-08-17T12:44:12.506Z,6.00
2022-08-17T12:46:48.999Z,5.72
2022-08-17T12:49:30.007Z,5.85
2022-08-17T12:52:07.898Z,6.10
2022-08-17T12:54:42.485Z,5.85
2022-08-17T12:57:15.353Z,6.22
2022-08-17T12:59:58.831Z,6.25
2022-08-17T13:02:58.387Z,5.90
2022-08-17T13:05:31.193Z,6.03
2022-08-17T13:08:00.475Z,5.78
2022-08-17T13:10:32.787Z,6.22
2022-08-17T13:13:17.933Z,6.10
2022-08-17T13:15:54.686Z,5.50
2022-08-17T13:18:40.578Z,5.47
2022-08-17T13:21:20.385Z,5.88
2022-08-17T13:24:13.904Z,6.57
2022-08-17T13:26:47.449Z,5.97
2022-08-17T13:29:28.505Z,5.97
2022-08-17T13:32:04.714Z,6.20
2022-08-17T13:35:13.766Z,5.82
2022-08-17T13:37:36.406Z,6.10
2022-08-17T13:40:09.940Z,6.63
2022-08-17T13:42:52.557Z,5.88
2022-08-17T13:45:34.919Z,6.20
2022-08-17T13:48:16.368Z,5.72
2022-08-17T13:50:48.195Z,6.22
2022-08-17T13:53:33.239Z,5.80
2022-08-17T13:56:04.720Z,6.10
2022-08-17T13:59:00.712Z,5.90
2022-08-17T14:01:41.181Z,5.90
2022-08-17T14:04:17.376Z,6.40
2022-08-17T14:07:03.352Z,6.30
2022-08-17T14:09:38.008Z,5.78
2022-08-17T14:12:17.069Z,6.15
2022-08-17T14:14:46.273Z,6.03
2022-08-17T14:17:14.380Z,6.05
2022-08-17T14:19:42.017Z,6.05
2022-08-17T14:22:19.352Z,5.88
2022-08-17T14:24:47.212Z,5.57
2022-08-17T14:27:18.244Z,5.90
2022-08-17T14:29:48.993Z,5.95
2022-08-17T14:32:26.941Z,6.07
2022-08-17T14:35:10.586Z,5.90
2022-08-17T14:37:45.976Z,5.95
2022-08-17T14:40:16.216Z,5.97
2022-08-17T14:42:45.980Z,6.10
2022-08-17T14:45:30.207Z,5.90
2022-08-17T14:48:05.970Z,5.90
2022-08-17T14:50:36.113Z,6.30
2022-08-17T14:53:05.787Z,6.10
2022-08-17T14:55:37.082Z,6.47
2022-08-17T14:58:10.804Z,6.57
2022-08-17T15:00:41.594Z,6.82
2022-08-17T15:03:09.376Z,6.43
2022-08-17T15:05:39.146Z,7.03
2022-08-17T15:08:08.999Z,6.85
2022-08-17T15:10:43.636Z,7.20
2022-08-17T15:13:24.195Z,6.97
2022-08-17T15:16:01.597Z,6.70
2022-08-17T15:24:07.774Z,6.28
2022-08-17T15:26:38.087Z,7.00
2022-08-17T15:29:13.969Z,7.20
2022-08-17T15:32:00.469Z,6.88
2022-08-17T15:34:39.381Z,6.50
2022-08-17T15:37:25.353Z,6.97
2022-08-17T15:41:07.595Z,7.20
2022-08-17T15:44:00.627Z,7.20
2022-08-17T15:47:27.342Z,7.63
2022-08-17T15:57:11.682Z,6.85
2022-08-17T16:00:17.599Z,7.03
2022-08-17T16:03:45.181Z,7.20
2022-08-17T16:06:04.162Z,7.25
2022-08-17T16:08:33.309Z,7.22
2022-08-17T16:11:11.834Z,7.20
2022-08-17T16:13:41.090Z,7.70
2022-08-17T16:16:11.566Z,7.20
2022-08-17T16:18:40.043Z,7.18
2022-08-17T16:21:39.314Z,7.25
2022-08-17T16:24:14.972Z,7.65
2022-08-17T16:26:50.925Z,7.88
2022-08-17T16:29:23.054Z,7.43
2022-08-17T16:31:54.530Z,7.60
2022-08-17T16:34:26.729Z,8.13
2022-08-17T16:36:57.318Z,7.85
2022-08-17T16:39:29.606Z,7.50
2022-08-17T16:42:00.010Z,7.75
2022-08-17T16:44:32.076Z,7.10
2022-08-17T16:47:06.411Z,7.53
2022-08-17T16:49:38.138Z,7.07
2022-08-17T16:52:13.186Z,7.13
2022-08-17T16:54:44.089Z,7.55
2022-08-17T16:57:19.078Z,7.68
2022-08-17T16:59:54.792Z,7.22
2022-08-17T17:02:38.231Z,7.47
2022-08-17T17:05:39.730Z,7.93
2022-08-17T17:08:20.927Z,7.15
2022-08-17T17:10:52.655Z,7.63
2022-08-17T17:13:35.108Z,7.43
2022-08-17T17:16:32.499Z,7.30
2022-08-17T17:19:34.994Z,7.63
2022-08-17T17:22:19.612Z,7.45
2022-08-17T17:24:58.608Z,7.20
2022-08-17T17:28:25.697Z,6.68
2022-08-17T17:31:17.827Z,7.05
2022-08-17T17:33:57.616Z,7.25
2022-08-17T17:36:40.152Z,6.70
2022-08-17T17:39:21.989Z,6.70
2022-08-17T17:41:51.624Z,7.15
2022-08-17T17:44:25.343Z,7.00
2022-08-17T17:47:00.959Z,7.05
2022-08-17T17:49:45.506Z,6.85
2022-08-17T17:52:36.639Z,7.10
2022-08-17T17:55:52.380Z,6.80
2022-08-17T17:59:01.744Z,6.78
2022-08-17T18:01:48.339Z,6.90
2022-08-17T18:04:51.749Z,6.80
2022-08-17T18:07:43.165Z,6.68
2022-08-17T18:10:30.214Z,6.65
2022-08-17T18:13:05.588Z,7.03
2022-08-17T18:15:35.638Z,6.60
2022-08-17T18:18:24.155Z,6.65
2022-08-17T18:20:56.192Z,6.47
2022-08-17T18:23:28.131Z,6.68
2022-08-17T18:25:58.871Z,6.88
2022-08-17T18:28:44.230Z,7.00
2022-08-17T18:31:22.262Z,7.38
2022-08-17T18:34:36.130Z,6.97
2022-08-17T18:37:06.973Z,7.20
2022-08-17T18:39:37.210Z,7.05
2022-08-17T18:42:22.580Z,7.38
2022-08-17T18:44:59.888Z,7.28
2022-08-17T18:47:29.668Z,6.95
2022-08-17T18:50:25.970Z,7.03
2022-08-17T18:52:57.586Z,7.00
2022-08-17T18:55:30.231Z,7.07
2022-08-17T18:58:15.308Z,6.90
2022-08-17T19:00:48.052Z,7.50
2022-08-17T19:03:18.784Z,7.13
2022-08-17T19:05:55.509Z,7.35
2022-08-17T19:08:32.359Z,7.15
2022-08-17T19:11:05.384Z,7.90
2022-08-17T19:13:41.961Z,7.40
2022-08-17T19:16:19.311Z,7.78
2022-08-17T19:19:16.351Z,9.23
2022-08-17T19:22:12.801Z,7.70
2022-08-17T19:24:47.601Z,7.70
2022-08-17T19:27:49.998Z,7.90
2022-08-17T19:30:18.180Z,7.05
2022-08-17T19:32:45.624Z,7.10
2022-08-17T19:35:17.518Z,7.85
2022-08-17T19:38:00.985Z,7.38
2022-08-17T19:40:52.123Z,7.72
2022-08-17T19:43:20.554Z,7.55
2022-08-17T19:46:06.472Z,6.88
2022-08-17T19:48:55.180Z,7.43
2022-08-17T19:51:36.255Z,7.68
2022-08-17T19:54:15.284Z,7.97
2022-08-17T19:56:58.580Z,7.68
2022-08-17T19:59:55.949Z,8.35
2022-08-17T20:02:57.497Z,8.80
2022-08-17T20:05:30.366Z,8.68
2022-08-17T20:08:07.018Z,8.43
2022-08-17T20:14:11.119Z,8.05
2022-08-17T20:16:39.847Z,9.40
2022-08-17T20:19:31.106Z,8.60
2022-08-17T20:22:09.830Z,8.95
2022-08-17T20:24:52.944Z,8.43
2022-08-17T20:27:34.679Z,8.43
2022-08-17T20:30:09.364Z,7.72
2022-08-17T20:33:00.069Z,8.40
2022-08-17T20:35:36.900Z,8.57
2022-08-17T20:38:47.929Z,8.27
2022-08-17T20:41:22.545Z,8.85
2022-08-17T20:43:57.618Z,7.95
2022-08-17T20:46:37.578Z,8.90
2022-08-17T20:49:27.240Z,8.88
2022-08-17T20:52:01.808Z,9.10
2022-08-17T20:54:54.480Z,8.45
2022-08-17T20:57:45.829Z,7.85
2022-08-17T21:00:33.242Z,8.55
2022-08-17T21:03:26.825Z,8.88
2022-08-17T21:06:00.715Z,8.93
2022-08-17T21:08:41.328Z,9.27
2022-08-17T21:12:02.612Z,9.57
2022-08-17T21:14:43.532Z,9.73
2022-08-17T21:17:29.842Z,10.02
2022-08-17T21:20:17.635Z,10.27
2022-08-17T21:23:11.559Z,10.02
2022-08-17T21:26:03.303Z,9.30
2022-08-17T21:29:00.388Z,8.88
2022-08-17T21:31:32.107Z,9.13
2022-08-17T21:34:35.803Z,9.55
2022-08-17T21:37:24.181Z,9.85
2022-08-17T21:40:14.719Z,9.88
2022-08-17T21:43:25.736Z,9.85
2022-08-17T21:46:05.438Z,9.93
2022-08-17T21:48:48.337Z,9.82
2022-08-17T21:51:22.934Z,10.18
2022-08-17T21:53:59.515Z,10.45
2022-08-17T21:56:38.864Z,9.45
2022-08-17T21:59:15.225Z,10.20
2022-08-17T22:01:43.462Z,9.93
2022-08-17T22:04:13.932Z,9.10
2022-08-17T22:06:52.282Z,8.45
2022-08-17T22:09:34.228Z,9.43
2022-08-17T22:12:09.460Z,9.50
2022-08-17T22:14:51.708Z,9.00
2022-08-17T22:17:36.682Z,8.90
2022-08-17T22:20:21.227Z,9.88
2022-08-17T22:23:07.143Z,9.18
2022-08-17T22:25:38.404Z,10.68
2022-08-17T22:28:08.899Z,10.48
2022-08-17T22:30:36.199Z,10.35
2022-08-17T22:33:40.776Z,10.68
2022-08-17T22:36:29.021Z,10.82
2022-08-17T22:39:02.311Z,10.10
2022-08-17T22:41:34.860Z,10.80
2022-08-17T22:44:26.547Z,9.98
2022-08-17T22:47:01.240Z,9.25
2022-08-17T22:49:53.443Z,10.07
2022-08-17T22:53:01.388Z,10.05
2022-08-17T22:55:52.130Z,11.00
2022-08-17T22:58:41.988Z,11.48
2022-08-17T23:01:28.495Z,11.02
2022-08-17T23:04:11.992Z,10.15
2022-08-17T23:06:42.688Z,8.95
2022-08-17T23:09:10.305Z,9.68
2022-08-17T23:11:50.528Z,8.90
2022-08-17T23:14:20.810Z,9.90
2022-08-17T23:16:50.341Z,10.18
2022-08-17T23:19:24.146Z,9.65
2022-08-17T23:21:52.791Z,9.68
2022-08-17T23:24:27.271Z,9.70
2022-08-17T23:26:57.590Z,8.73
2022-08-17T23:29:26.009Z,9.55
2022-08-17T23:31:54.089Z,9.40
2022-08-17T23:34:21.700Z,8.65
2022-08-17T23:36:54.294Z,9.20
2022-08-17T23:39:27.477Z,8.60
2022-08-17T23:42:05.175Z,8.27
2022-08-17T23:44:34.349Z,8.52
2022-08-17T23:47:03.690Z,9.23
2022-08-17T23:49:32.204Z,9.10
2022-08-17T23:52:02.636Z,8.43
2022-08-17T23:54:37.623Z,8.70
2022-08-17T23:57:05.066Z,9.15
2022-08-17T23:59:33.997Z,9.13
